Closplint, Kentucky
Current Conditions -  °F | °C
As of 3:15 PM on Thursday 30 Oct 2014 (Local Time) from KI35 Reporting Station
Clear Clear  
Wind Chill: 59°   Ceiling: Unl
Heat Index: 59°   Visibility: 10mi
Dew Point: 34°   Wind: 3mph
Humidity: 39%   Direction: 340°NNW
Pressure: 30.03"   Gusts: NA
Location:  36.9°N, 83.07°W
Report Text: KI35 301915Z AUTO 34003KT 10SM CLR 15/01 A3003 RMK AO1
Loading
Personal Weather Stations






























Interactive Weather Map
Tropical Storm Tracking
New forecast layout! Learn more

10-Day Weather Forecast

Advertisements
Track Severe Weather on mobile